createdAt,value
2022-10-05T00:00:59.869Z,7.59
2022-10-05T00:03:30.498Z,7.60
2022-10-05T00:05:57.467Z,7.58
2022-10-05T00:08:25.129Z,7.59
2022-10-05T00:10:51.870Z,7.59
2022-10-05T00:13:23.584Z,7.57
2022-10-05T00:15:50.440Z,7.56
2022-10-05T00:18:18.879Z,7.55
2022-10-05T00:20:46.279Z,7.52
2022-10-05T00:23:16.303Z,7.52
2022-10-05T00:25:42.833Z,7.51
2022-10-05T00:28:22.604Z,7.49
2022-10-05T00:30:49.164Z,7.46
2022-10-05T00:33:15.540Z,7.44
2022-10-05T00:35:42.095Z,7.44
2022-10-05T00:38:08.508Z,7.42
2022-10-05T00:41:01.397Z,7.41
2022-10-05T00:43:27.829Z,7.40
2022-10-05T00:45:57.242Z,7.40
2022-10-05T00:48:23.689Z,7.32
2022-10-05T00:50:50.094Z,7.32
2022-10-05T00:53:28.543Z,7.26
2022-10-05T00:55:54.907Z,7.21
2022-10-05T00:58:21.336Z,7.19
2022-10-05T01:01:00.445Z,7.15
2022-10-05T01:03:45.478Z,7.23
2022-10-05T01:06:25.986Z,7.16
2022-10-05T01:09:03.405Z,7.13
2022-10-05T01:11:38.845Z,7.10
2022-10-05T01:14:05.271Z,7.08
2022-10-05T01:16:53.205Z,7.03
2022-10-05T01:19:25.909Z,6.99
2022-10-05T01:21:55.046Z,6.94
2022-10-05T01:24:40.044Z,6.91
2022-10-05T01:27:09.553Z,6.85
2022-10-05T01:29:45.251Z,6.78
2022-10-05T01:32:14.486Z,6.75
2022-10-05T01:34:42.375Z,6.70
2022-10-05T01:37:23.938Z,6.63
2022-10-05T01:39:56.445Z,6.57
2022-10-05T01:42:41.649Z,6.56
2022-10-05T01:45:11.161Z,6.51
2022-10-05T01:47:40.595Z,6.46
2022-10-05T01:50:22.237Z,6.45
2022-10-05T01:52:51.650Z,6.42
2022-10-05T01:55:28.032Z,6.40
2022-10-05T01:57:57.522Z,6.40
2022-10-05T02:00:23.996Z,6.34
2022-10-05T02:03:03.151Z,6.31
2022-10-05T02:05:33.898Z,6.29
2022-10-05T02:08:01.935Z,6.26
2022-10-05T02:10:35.132Z,6.26
2022-10-05T02:13:06.822Z,6.25
2022-10-05T02:15:38.896Z,6.35
2022-10-05T02:18:10.372Z,6.34
2022-10-05T02:20:38.325Z,6.39
2022-10-05T02:23:07.835Z,6.37
2022-10-05T02:25:36.481Z,6.33
2022-10-05T02:28:09.910Z,6.34
2022-10-05T02:30:40.048Z,6.34
2022-10-05T02:33:35.606Z,6.35
2022-10-05T02:36:07.664Z,6.36
2022-10-05T02:38:47.437Z,6.33
2022-10-05T02:41:13.813Z,6.28
2022-10-05T02:44:00.519Z,6.21
2022-10-05T02:46:36.772Z,6.11
2022-10-05T02:49:03.230Z,6.03
2022-10-05T02:51:35.575Z,5.97
2022-10-05T02:54:20.815Z,5.92
2022-10-05T02:57:13.548Z,5.89
2022-10-05T02:59:52.093Z,5.90
2022-10-05T03:02:24.032Z,5.86
2022-10-05T03:04:56.433Z,5.90
2022-10-05T03:08:02.260Z,5.89
2022-10-05T03:10:33.688Z,5.91
2022-10-05T03:13:00.068Z,5.91
2022-10-05T03:15:26.480Z,5.90
2022-10-05T03:18:06.903Z,5.89
2022-10-05T03:20:52.151Z,5.88
2022-10-05T03:23:31.915Z,5.87
2022-10-05T03:25:58.351Z,5.89
2022-10-05T03:28:30.665Z,5.89
2022-10-05T03:31:03.168Z,5.91
2022-10-05T03:33:29.555Z,5.96
2022-10-05T03:35:58.949Z,5.96
2022-10-05T03:38:31.528Z,5.94
2022-10-05T03:41:04.468Z,5.91
2022-10-05T03:43:43.909Z,5.85
2022-10-05T03:46:25.964Z,5.81
2022-10-05T03:48:55.496Z,5.73
2022-10-05T03:51:24.715Z,5.67
2022-10-05T03:53:55.468Z,5.64
2022-10-05T03:56:40.163Z,5.62
2022-10-05T03:59:14.741Z,5.55
2022-10-05T04:02:10.428Z,5.50
2022-10-05T04:04:39.835Z,5.46
2022-10-05T04:07:09.600Z,5.44
2022-10-05T04:09:49.904Z,5.42
2022-10-05T04:12:24.162Z,5.42
2022-10-05T04:14:53.801Z,5.41
2022-10-05T04:17:58.701Z,5.40
2022-10-05T04:20:29.362Z,5.31
2022-10-05T04:22:55.712Z,5.25
2022-10-05T04:25:40.039Z,5.20
2022-10-05T04:28:31.926Z,5.16
2022-10-05T04:31:00.507Z,5.12
2022-10-05T04:33:27.352Z,5.11
2022-10-05T04:36:12.627Z,5.09
2022-10-05T04:38:57.248Z,5.04
2022-10-05T04:41:38.102Z,5.03
2022-10-05T04:44:04.575Z,4.97
2022-10-05T04:46:37.007Z,4.96
2022-10-05T04:49:09.300Z,4.89
2022-10-05T04:51:40.384Z,4.88
2022-10-05T04:54:36.341Z,4.88
2022-10-05T04:57:07.111Z,4.88
2022-10-05T04:59:51.819Z,4.85
2022-10-05T05:02:24.430Z,4.87
2022-10-05T05:04:56.963Z,4.85
2022-10-05T05:07:32.698Z,4.87
2022-10-05T05:10:14.319Z,4.86
2022-10-05T05:12:59.855Z,4.87
2022-10-05T05:15:33.376Z,4.96
2022-10-05T05:18:02.591Z,4.99
2022-10-05T05:20:48.014Z,5.05
2022-10-05T05:23:20.578Z,5.06
2022-10-05T05:25:46.978Z,5.05
2022-10-05T05:28:32.338Z,5.08
2022-10-05T05:31:05.557Z,5.10
2022-10-05T05:33:54.819Z,5.10
2022-10-05T05:36:33.950Z,5.13
2022-10-05T05:39:09.137Z,5.16
2022-10-05T05:41:58.232Z,5.19
2022-10-05T05:44:38.888Z,5.22
2022-10-05T05:47:08.997Z,5.28
2022-10-05T05:49:47.068Z,5.32
2022-10-05T05:52:25.546Z,5.34
2022-10-05T05:54:56.887Z,5.39
2022-10-05T05:57:26.430Z,5.42
2022-10-05T06:00:05.841Z,5.43
2022-10-05T06:02:43.211Z,5.44
2022-10-05T06:05:26.044Z,5.50
2022-10-05T06:07:53.921Z,5.52
2022-10-05T06:10:31.419Z,5.54
2022-10-05T06:13:01.833Z,5.56
2022-10-05T06:15:31.531Z,5.61
2022-10-05T06:18:00.424Z,5.65
2022-10-05T06:20:39.053Z,5.68
2022-10-05T06:23:10.437Z,5.72
2022-10-05T06:25:44.772Z,5.76
2022-10-05T06:28:11.438Z,5.80
2022-10-05T06:30:44.880Z,5.86
2022-10-05T06:33:23.184Z,5.93
2022-10-05T06:36:09.615Z,6.00
2022-10-05T06:38:42.039Z,6.06
2022-10-05T06:41:11.546Z,6.17
2022-10-05T06:43:47.048Z,6.24
2022-10-05T06:46:18.401Z,6.39
2022-10-05T06:49:03.544Z,6.49
2022-10-05T06:51:39.157Z,6.65
2022-10-05T06:54:08.613Z,6.85
2022-10-05T06:56:35.155Z,7.10
2022-10-05T06:59:04.750Z,7.29
2022-10-05T07:01:37.499Z,7.56
2022-10-05T07:04:21.425Z,7.77
2022-10-05T07:07:14.843Z,7.98
2022-10-05T07:09:48.766Z,8.16
2022-10-05T07:12:23.958Z,8.30
2022-10-05T07:14:50.360Z,8.44
2022-10-05T07:17:22.339Z,8.60
2022-10-05T07:19:57.864Z,8.75
2022-10-05T07:22:43.249Z,8.89
2022-10-05T07:25:13.261Z,9.05
2022-10-05T07:27:51.070Z,9.19
2022-10-05T07:30:18.924Z,9.40
2022-10-05T07:32:52.768Z,9.58
2022-10-05T07:35:52.940Z,9.75
2022-10-05T07:38:31.072Z,9.95
2022-10-05T07:41:02.359Z,10.16
2022-10-05T07:43:57.847Z,10.33
2022-10-05T07:46:36.686Z,10.49
2022-10-05T07:49:09.642Z,10.64
2022-10-05T07:51:45.154Z,10.82
2022-10-05T07:54:18.113Z,10.99
2022-10-05T07:56:46.318Z,11.13
2022-10-05T07:59:17.161Z,11.27
2022-10-05T08:01:47.429Z,11.43
2022-10-05T08:04:27.511Z,11.59
2022-10-05T08:06:58.175Z,11.80
2022-10-05T08:09:45.752Z,11.99
2022-10-05T08:12:19.722Z,12.22
2022-10-05T08:15:04.989Z,12.37
2022-10-05T08:17:50.304Z,12.54
2022-10-05T08:20:32.020Z,12.68
2022-10-05T08:23:01.658Z,12.82
2022-10-05T08:25:40.216Z,12.93
2022-10-05T08:28:32.979Z,13.05
2022-10-05T08:31:03.402Z,13.25
2022-10-05T08:33:34.802Z,13.36
2022-10-05T08:36:12.948Z,13.45
2022-10-05T08:38:40.288Z,13.55
2022-10-05T08:41:29.226Z,13.64
2022-10-05T08:44:14.454Z,13.78
2022-10-05T08:47:05.435Z,13.85
2022-10-05T08:49:35.150Z,13.99
2022-10-05T08:52:20.293Z,14.03
2022-10-05T08:54:58.927Z,14.19
2022-10-05T08:57:25.338Z,14.36
2022-10-05T09:00:10.758Z,14.53
2022-10-05T09:02:49.393Z,14.74
2022-10-05T09:05:34.666Z,14.92
2022-10-05T09:08:20.550Z,15.17
2022-10-05T09:10:50.063Z,15.37
2022-10-05T09:13:35.322Z,15.48
2022-10-05T09:16:16.769Z,15.64
2022-10-05T09:18:46.359Z,15.73
2022-10-05T09:21:14.602Z,15.88
2022-10-05T09:23:42.873Z,16.00
2022-10-05T09:26:29.466Z,16.09
2022-10-05T09:29:18.943Z,16.25
2022-10-05T09:31:48.665Z,16.37
2022-10-05T09:34:18.207Z,16.53
2022-10-05T09:36:47.870Z,16.64
2022-10-05T09:39:26.429Z,16.79
2022-10-05T09:42:09.655Z,16.85
2022-10-05T09:44:54.789Z,16.89
2022-10-05T09:47:21.212Z,17.04
2022-10-05T09:50:00.284Z,17.19
2022-10-05T09:52:59.258Z,17.33
2022-10-05T09:55:39.278Z,17.55
2022-10-05T09:58:28.357Z,17.72
2022-10-05T10:01:32.809Z,17.87
2022-10-05T10:04:10.290Z,17.98
2022-10-05T10:06:55.687Z,18.06
2022-10-05T10:09:34.041Z,18.22
2022-10-05T10:12:20.601Z,18.28
2022-10-05T10:15:06.416Z,18.40
2022-10-05T10:17:53.947Z,18.57
2022-10-05T10:20:31.025Z,18.76
2022-10-05T10:23:03.262Z,18.86
2022-10-05T10:25:31.765Z,18.91
2022-10-05T10:28:07.533Z,18.85
2022-10-05T10:30:39.904Z,18.86
2022-10-05T10:33:18.612Z,18.85
2022-10-05T10:35:51.231Z,18.90
2022-10-05T10:38:20.365Z,19.03
2022-10-05T10:40:46.838Z,19.18
2022-10-05T10:43:22.491Z,19.24
2022-10-05T10:45:56.770Z,19.44
2022-10-05T10:48:29.100Z,19.66
2022-10-05T10:50:58.706Z,19.77
2022-10-05T10:53:40.404Z,19.82
2022-10-05T10:56:30.107Z,19.86
2022-10-05T10:59:05.703Z,19.67
2022-10-05T11:01:39.792Z,19.45
2022-10-05T11:04:06.409Z,19.22
2022-10-05T11:06:48.601Z,19.04
2022-10-05T11:09:44.260Z,18.90
2022-10-05T11:12:34.299Z,18.92
2022-10-05T11:15:05.043Z,19.11
2022-10-05T11:17:51.194Z,19.26
2022-10-05T11:20:28.127Z,19.39
2022-10-05T11:22:57.686Z,19.56
2022-10-05T11:25:44.399Z,19.63
2022-10-05T11:28:17.024Z,19.72
2022-10-05T11:31:02.347Z,19.73
2022-10-05T11:33:31.686Z,19.68
2022-10-05T11:36:20.417Z,19.67
2022-10-05T11:38:48.350Z,19.79
2022-10-05T11:41:33.879Z,20.05
2022-10-05T11:44:18.417Z,20.40
2022-10-05T11:47:01.277Z,20.72
2022-10-05T11:49:45.271Z,20.85
2022-10-05T11:52:14.754Z,20.86
2022-10-05T11:55:10.285Z,20.71
2022-10-05T11:57:45.729Z,20.39
2022-10-05T12:00:23.174Z,20.12
2022-10-05T12:02:56.011Z,19.88
2022-10-05T12:05:25.616Z,19.72
2022-10-05T12:07:54.972Z,19.57
2022-10-05T12:10:39.773Z,19.44
2022-10-05T12:13:19.343Z,19.37
2022-10-05T12:15:55.261Z,19.32
2022-10-05T12:18:31.407Z,19.33
2022-10-05T12:20:57.814Z,19.34
2022-10-05T12:23:57.075Z,19.35
2022-10-05T12:26:26.447Z,19.39
2022-10-05T12:28:56.798Z,19.28
2022-10-05T12:31:35.992Z,19.28
2022-10-05T12:34:22.802Z,19.18
2022-10-05T12:37:03.901Z,19.01
2022-10-05T12:39:31.064Z,19.00
2022-10-05T12:42:03.551Z,18.98
2022-10-05T12:44:43.307Z,18.90
2022-10-05T12:47:14.943Z,18.85
2022-10-05T12:49:41.264Z,18.74
2022-10-05T12:52:14.176Z,18.67
2022-10-05T12:54:46.291Z,18.53
2022-10-05T12:57:36.052Z,18.45
2022-10-05T13:00:05.660Z,18.35
2022-10-05T13:02:43.239Z,18.35
2022-10-05T13:05:09.564Z,18.41
2022-10-05T13:07:55.032Z,18.32
2022-10-05T13:10:44.415Z,18.33
2022-10-05T13:13:20.574Z,18.31
2022-10-05T13:15:54.321Z,18.29
2022-10-05T13:18:42.058Z,18.31
2022-10-05T13:21:26.875Z,18.34
2022-10-05T13:23:59.349Z,18.39
2022-10-05T13:26:39.516Z,18.37
2022-10-05T13:29:17.423Z,18.39
2022-10-05T13:31:49.277Z,18.39
2022-10-05T13:34:36.064Z,18.39
2022-10-05T13:37:02.443Z,18.39
2022-10-05T13:39:34.989Z,18.43
2022-10-05T13:42:09.636Z,18.38
2022-10-05T13:45:02.789Z,18.38
2022-10-05T13:47:39.074Z,18.38
2022-10-05T13:50:17.839Z,18.38
2022-10-05T13:52:53.428Z,18.39
2022-10-05T13:55:22.881Z,18.45
2022-10-05T13:58:08.350Z,18.51
2022-10-05T14:00:41.200Z,18.67
2022-10-05T14:03:23.231Z,18.73
2022-10-05T14:05:57.497Z,18.82
2022-10-05T14:08:33.152Z,18.94
2022-10-05T14:10:59.837Z,19.11
2022-10-05T14:13:43.689Z,19.24
2022-10-05T14:16:13.004Z,19.37
2022-10-05T14:18:50.914Z,19.46
2022-10-05T14:21:22.902Z,19.54
2022-10-05T14:23:50.031Z,19.59
2022-10-05T14:26:17.664Z,19.61
2022-10-05T14:28:56.333Z,19.61
2022-10-05T14:31:34.941Z,19.60
2022-10-05T14:34:26.874Z,19.53
2022-10-05T14:37:18.256Z,19.45
2022-10-05T14:39:46.162Z,19.47
2022-10-05T14:42:15.225Z,19.46
2022-10-05T14:44:41.891Z,19.43
2022-10-05T14:47:20.228Z,19.44
2022-10-05T14:50:10.651Z,19.40
2022-10-05T14:52:38.064Z,19.30
2022-10-05T14:55:17.791Z,19.26
2022-10-05T14:57:44.525Z,19.11
2022-10-05T15:00:11.648Z,18.98
2022-10-05T15:02:56.606Z,18.92
2022-10-05T15:05:26.792Z,18.80
2022-10-05T15:07:57.260Z,18.74
2022-10-05T15:10:36.514Z,18.69
2022-10-05T15:13:29.319Z,18.64
2022-10-05T15:15:57.821Z,18.55
2022-10-05T15:18:31.768Z,18.45
2022-10-05T15:21:14.031Z,18.35
2022-10-05T15:23:42.926Z,18.27
2022-10-05T15:26:18.525Z,18.17
2022-10-05T15:28:55.006Z,18.03
2022-10-05T15:31:27.649Z,17.93
2022-10-05T15:34:02.335Z,17.75
2022-10-05T15:36:28.886Z,17.68
2022-10-05T15:39:07.041Z,17.67
2022-10-05T15:41:33.474Z,17.58
2022-10-05T15:44:09.487Z,17.54
2022-10-05T15:46:50.532Z,17.39
2022-10-05T15:49:19.779Z,17.26
2022-10-05T15:52:01.413Z,17.24
2022-10-05T15:54:53.368Z,17.13
2022-10-05T15:57:34.037Z,16.98
2022-10-05T16:00:05.500Z,16.88
2022-10-05T16:02:37.842Z,16.76
2022-10-05T16:05:44.807Z,16.63
2022-10-05T16:08:39.623Z,16.52
2022-10-05T16:11:10.546Z,16.48
2022-10-05T16:13:47.250Z,16.39
2022-10-05T16:16:15.625Z,16.24
2022-10-05T16:19:01.203Z,16.18
2022-10-05T16:21:44.003Z,16.08
2022-10-05T16:24:10.674Z,15.97
2022-10-05T16:26:39.911Z,15.91
2022-10-05T16:29:16.645Z,15.85
2022-10-05T16:31:43.898Z,15.79
2022-10-05T16:34:29.215Z,15.62
2022-10-05T16:37:04.698Z,15.55
2022-10-05T16:39:50.057Z,15.42
2022-10-05T16:42:42.022Z,15.35
2022-10-05T16:45:17.631Z,15.29
2022-10-05T16:48:02.530Z,15.24
2022-10-05T16:50:44.118Z,15.14
2022-10-05T16:53:40.250Z,15.07
2022-10-05T16:56:11.091Z,15.07
2022-10-05T16:58:40.593Z,14.97
2022-10-05T17:01:10.751Z,14.91
2022-10-05T17:03:40.061Z,14.82
2022-10-05T17:06:09.321Z,14.76
2022-10-05T17:08:41.749Z,14.74
2022-10-05T17:11:20.942Z,14.67
2022-10-05T17:14:06.258Z,14.64
2022-10-05T17:16:33.205Z,14.58
2022-10-05T17:19:00.659Z,14.56
2022-10-05T17:21:32.463Z,14.55
2022-10-05T17:24:12.396Z,14.50
2022-10-05T17:26:59.484Z,14.43
2022-10-05T17:29:30.853Z,14.41
2022-10-05T17:32:06.405Z,14.36
2022-10-05T17:34:36.773Z,14.31
2022-10-05T17:37:22.010Z,14.29
2022-10-05T17:39:50.794Z,14.25
2022-10-05T17:42:43.667Z,14.22
2022-10-05T17:45:10.897Z,14.16
2022-10-05T17:47:56.195Z,14.10
2022-10-05T17:51:01.711Z,14.08
2022-10-05T17:53:53.583Z,14.00
2022-10-05T17:56:20.912Z,13.97
2022-10-05T17:58:47.291Z,13.95
2022-10-05T18:01:17.129Z,13.95
2022-10-05T18:03:44.605Z,13.89
2022-10-05T18:06:26.488Z,13.85
2022-10-05T18:09:11.646Z,13.85
2022-10-05T18:11:40.277Z,13.82
2022-10-05T18:14:20.647Z,13.85
2022-10-05T18:16:56.251Z,13.81
2022-10-05T18:19:23.275Z,13.84
2022-10-05T18:22:03.402Z,13.83
2022-10-05T18:24:36.871Z,13.82
2022-10-05T18:27:12.338Z,13.77
2022-10-05T18:30:00.271Z,13.71
2022-10-05T18:32:26.677Z,13.67
2022-10-05T18:35:02.136Z,13.63
2022-10-05T18:37:42.541Z,13.54
2022-10-05T18:40:21.278Z,13.49
2022-10-05T18:42:56.345Z,13.43
2022-10-05T18:45:31.984Z,13.38
2022-10-05T18:48:06.748Z,13.31
2022-10-05T18:50:51.831Z,13.19
2022-10-05T18:53:25.368Z,13.12
2022-10-05T18:56:03.642Z,13.06
2022-10-05T18:58:53.210Z,12.97
2022-10-05T19:01:34.705Z,12.87
2022-10-05T19:04:22.310Z,12.77
2022-10-05T19:07:04.924Z,12.68
2022-10-05T19:09:50.962Z,12.61
2022-10-05T19:12:17.451Z,12.56
2022-10-05T19:14:46.935Z,12.53
2022-10-05T19:17:24.114Z,12.53
2022-10-05T19:20:02.850Z,12.51
2022-10-05T19:22:40.267Z,12.49
2022-10-05T19:25:13.761Z,12.51
2022-10-05T19:27:55.302Z,12.52
2022-10-05T19:30:25.157Z,12.50
2022-10-05T19:32:54.538Z,12.56
2022-10-05T19:35:33.108Z,12.63
2022-10-05T19:38:00.611Z,12.68
2022-10-05T19:40:53.044Z,12.74
2022-10-05T19:43:38.211Z,12.87
2022-10-05T19:46:23.555Z,13.04
2022-10-05T19:48:52.370Z,13.16
2022-10-05T19:51:30.683Z,13.26
2022-10-05T19:54:13.664Z,13.28
2022-10-05T19:56:49.599Z,13.31
2022-10-05T19:59:20.159Z,13.36
2022-10-05T20:01:50.195Z,13.40
2022-10-05T20:04:37.046Z,13.40
2022-10-05T20:07:04.027Z,13.40
2022-10-05T20:09:48.329Z,13.41
2022-10-05T20:12:15.844Z,13.39
2022-10-05T20:15:01.054Z,13.42
2022-10-05T20:17:46.927Z,13.50
2022-10-05T20:20:22.830Z,13.51
2022-10-05T20:22:49.225Z,13.56
2022-10-05T20:25:18.630Z,13.51
2022-10-05T20:27:49.792Z,13.52
2022-10-05T20:30:18.353Z,13.51
2022-10-05T20:32:58.086Z,13.47
2022-10-05T20:35:27.807Z,13.52
2022-10-05T20:37:56.385Z,13.53
2022-10-05T20:40:22.797Z,13.42
2022-10-05T20:42:50.337Z,13.30
2022-10-05T20:45:17.327Z,13.25
2022-10-05T20:47:46.558Z,13.21
2022-10-05T20:50:13.421Z,13.20
2022-10-05T20:52:40.057Z,13.13
2022-10-05T20:55:07.768Z,13.06
2022-10-05T20:57:34.374Z,13.09
2022-10-05T21:00:00.865Z,13.06
2022-10-05T21:02:27.269Z,13.08
2022-10-05T21:04:54.268Z,13.12
2022-10-05T21:07:21.698Z,13.06
2022-10-05T21:09:48.110Z,13.04
2022-10-05T21:12:16.386Z,13.05
2022-10-05T21:14:43.215Z,13.06
2022-10-05T21:17:10.466Z,13.25
2022-10-05T21:19:40.624Z,13.34
2022-10-05T21:22:08.123Z,13.48
2022-10-05T21:24:35.952Z,13.64
2022-10-05T21:27:02.714Z,13.66
2022-10-05T21:29:29.580Z,13.78
2022-10-05T21:31:56.425Z,13.98
2022-10-05T21:34:22.939Z,13.97
2022-10-05T21:36:49.425Z,14.03
2022-10-05T21:39:16.036Z,14.02
2022-10-05T21:41:42.420Z,14.02
2022-10-05T21:44:08.856Z,14.00
2022-10-05T21:46:36.136Z,14.01
2022-10-05T21:49:02.670Z,14.04
2022-10-05T21:51:29.156Z,14.03
2022-10-05T21:53:58.181Z,14.05
2022-10-05T21:56:27.901Z,14.10
2022-10-05T21:58:54.489Z,14.00
2022-10-05T22:01:22.871Z,13.88
2022-10-05T22:03:49.631Z,13.76
2022-10-05T22:06:16.179Z,13.61
2022-10-05T22:08:42.555Z,13.47
2022-10-05T22:11:10.815Z,13.34
2022-10-05T22:13:44.950Z,13.21
2022-10-05T22:16:11.939Z,13.10
2022-10-05T22:18:38.718Z,12.91
2022-10-05T22:21:06.290Z,12.74
2022-10-05T22:23:33.985Z,12.59
2022-10-05T22:26:00.662Z,12.19
2022-10-05T22:28:27.406Z,12.15
2022-10-05T22:30:54.331Z,12.02
2022-10-05T22:33:20.782Z,11.88
2022-10-05T22:35:47.191Z,11.81
2022-10-05T22:38:13.771Z,11.76
2022-10-05T22:40:40.286Z,11.76
2022-10-05T22:43:06.745Z,11.73
2022-10-05T22:45:33.353Z,11.71
2022-10-05T22:47:59.890Z,11.79
2022-10-05T22:50:26.300Z,11.92
2022-10-05T22:52:52.782Z,12.32
2022-10-05T22:55:19.277Z,12.76
2022-10-05T22:57:45.955Z,13.28
2022-10-05T23:00:12.862Z,14.10
2022-10-05T23:02:40.725Z,14.45
2022-10-05T23:05:08.418Z,14.74
2022-10-05T23:07:42.227Z,14.98
2022-10-05T23:10:10.185Z,15.28
2022-10-05T23:12:36.628Z,15.55
2022-10-05T23:15:03.989Z,15.86
2022-10-05T23:17:30.977Z,16.16
2022-10-05T23:19:57.949Z,16.30
2022-10-05T23:22:25.393Z,16.35
2022-10-05T23:24:52.433Z,16.35
2022-10-05T23:27:19.425Z,16.40
2022-10-05T23:29:45.839Z,16.44
2022-10-05T23:32:12.249Z,16.46
2022-10-05T23:34:38.754Z,16.51
2022-10-05T23:37:05.213Z,16.49
2022-10-05T23:39:31.718Z,16.52
2022-10-05T23:41:59.986Z,16.53
2022-10-05T23:44:26.701Z,16.52
2022-10-05T23:46:53.148Z,16.50
2022-10-05T23:49:19.539Z,16.55
2022-10-05T23:51:46.004Z,16.52
2022-10-05T23:54:12.383Z,16.50
2022-10-05T23:56:38.846Z,16.48
2022-10-05T23:59:05.277Z,16.46
